Time;durP1;ratioP1;P1;durP2;ratioP2;P2;SDS_P1;SDS_P2;PMS_P1;PMS_P2;Temp;Humidity;BMP_temperature;BMP_pressure;BME280_temperature;BME280_humidity;BME280_pressure;Samples;Min_cycle;Max_cycle;Signal;HPM_P1;HPM_P2
2022/03/31 00:01:55;;;;;;;14.73;10.17;;;10.40;86.80;;;;;;6272239;28;20493;-63
2022/03/31 00:04:59;;;;;;;13.47;10.70;;;10.30;86.90;;;;;;6268326;28;20470;-64
2022/03/31 00:08:04;;;;;;;13.07;10.33;;;10.30;87.30;;;;;;6247463;28;20479;-63
2022/03/31 00:11:07;;;;;;;11.93;9.50;;;10.20;87.00;;;;;;6248615;28;20486;-63
2022/03/31 00:14:10;;;;;;;17.37;9.60;;;10.10;87.50;;;;;;6249241;28;20463;-62
2022/03/31 00:17:15;;;;;;;11.27;8.60;;;10.10;88.10;;;;;;6249665;28;20954;-63
2022/03/31 00:20:18;;;;;;;17.60;11.00;;;10.00;88.70;;;;;;6251980;28;20463;-63
2022/03/31 00:23:21;;;;;;;14.23;8.13;;;10.00;90.90;;;;;;6252843;28;20478;-63
2022/03/31 00:26:24;;;;;;;12.17;9.30;;;10.00;90.50;;;;;;6252766;28;21150;-64
2022/03/31 00:29:27;;;;;;;14.60;9.40;;;10.00;90.90;;;;;;6267237;28;20484;-66
2022/03/31 00:32:32;;;;;;;13.60;8.80;;;10.00;90.60;;;;;;6278105;28;20474;-65
2022/03/31 00:35:35;;;;;;;15.63;9.20;;;10.00;90.80;;;;;;6278813;28;20466;-66
2022/03/31 00:38:38;;;;;;;17.90;10.03;;;10.00;91.00;;;;;;6278723;28;20466;-66
2022/03/31 00:41:41;;;;;;;10.50;9.50;;;10.00;90.60;;;;;;6278760;28;20853;-65
2022/03/31 00:44:45;;;;;;;14.40;10.83;;;9.90;90.80;;;;;;6278461;28;20481;-66
2022/03/31 00:47:49;;;;;;;10.33;8.97;;;9.90;90.90;;;;;;6279226;28;20470;-66
2022/03/31 00:50:52;;;;;;;14.97;9.67;;;9.80;90.80;;;;;;6270764;28;20466;-66
2022/03/31 00:53:55;;;;;;;13.00;9.40;;;9.80;90.90;;;;;;6279722;28;20493;-66
2022/03/31 00:57:00;;;;;;;13.17;8.60;;;9.80;91.00;;;;;;6279378;28;20462;-65
2022/03/31 01:00:04;;;;;;;11.63;10.30;;;9.80;91.10;;;;;;6277652;28;20482;-66
2022/03/31 01:03:08;;;;;;;11.73;10.20;;;9.80;91.10;;;;;;6276343;28;20997;-65
2022/03/31 01:06:12;;;;;;;11.87;9.63;;;9.80;91.10;;;;;;6277845;28;20476;-65
2022/03/31 01:09:15;;;;;;;16.13;10.27;;;9.80;91.10;;;;;;6276235;28;20954;-67
2022/03/31 01:12:18;;;;;;;16.60;9.63;;;9.80;91.50;;;;;;6276789;28;20471;-65
2022/03/31 01:15:21;;;;;;;13.80;9.80;;;9.70;91.10;;;;;;6274970;28;20469;-65
2022/03/31 01:18:26;;;;;;;12.80;9.70;;;9.70;90.90;;;;;;6276854;28;20462;-65
2022/03/31 01:21:29;;;;;;;13.80;8.80;;;9.60;91.00;;;;;;6276487;28;20467;-66
2022/03/31 01:24:33;;;;;;;13.23;9.80;;;9.60;91.20;;;;;;6276416;28;20969;-65
2022/03/31 01:27:39;;;;;;;14.57;9.63;;;9.50;91.30;;;;;;6276551;28;20462;-65
2022/03/31 01:30:42;;;;;;;12.20;9.50;;;9.40;91.40;;;;;;6276796;28;20467;-65
2022/03/31 01:33:45;;;;;;;17.17;11.17;;;9.50;91.50;;;;;;6277353;28;20494;-65
2022/03/31 01:36:48;;;;;;;13.80;10.63;;;9.40;91.50;;;;;;6277714;28;20482;-65
2022/03/31 01:39:53;;;;;;;11.20;9.77;;;9.40;91.60;;;;;;6277142;28;20474;-65
2022/03/31 01:42:56;;;;;;;15.67;10.43;;;9.40;91.70;;;;;;6277357;28;20501;-65
2022/03/31 01:45:59;;;;;;;12.13;8.80;;;9.40;91.90;;;;;;6277084;28;20557;-65
2022/03/31 01:49:02;;;;;;;9.53;8.60;;;9.40;92.00;;;;;;6277398;28;20479;-65
2022/03/31 01:52:06;;;;;;;15.97;9.10;;;9.40;92.10;;;;;;6277649;28;20474;-66
2022/03/31 01:55:11;;;;;;;14.67;10.23;;;9.40;92.20;;;;;;6267970;28;20490;-65
2022/03/31 01:58:14;;;;;;;13.37;10.00;;;9.40;92.20;;;;;;6277009;28;20474;-67
2022/03/31 02:01:17;;;;;;;10.17;9.20;;;9.40;92.20;;;;;;6277366;28;20477;-66
2022/03/31 02:04:21;;;;;;;14.30;10.70;;;9.40;92.20;;;;;;6276886;28;20487;-65
2022/03/31 02:07:24;;;;;;;13.77;10.20;;;9.40;92.20;;;;;;6276971;28;20470;-65
2022/03/31 02:10:28;;;;;;;19.33;10.80;;;9.40;92.20;;;;;;6276747;28;20466;-65
2022/03/31 02:13:31;;;;;;;15.17;11.07;;;9.40;92.10;;;;;;6276500;28;20470;-65
2022/03/31 02:16:34;;;;;;;14.03;10.87;;;9.40;92.10;;;;;;6276396;28;20478;-65
2022/03/31 02:19:38;;;;;;;13.67;9.43;;;9.40;92.00;;;;;;6276120;28;20891;-65
2022/03/31 02:22:41;;;;;;;13.70;9.77;;;9.40;92.10;;;;;;6276550;28;20765;-65
2022/03/31 02:25:46;;;;;;;13.07;10.77;;;9.40;92.10;;;;;;6276625;28;20455;-65
2022/03/31 02:28:49;;;;;;;15.10;10.47;;;9.30;92.10;;;;;;6276481;28;20764;-65
2022/03/31 02:31:52;;;;;;;15.23;9.90;;;9.30;92.10;;;;;;6276489;28;20449;-66
2022/03/31 02:34:57;;;;;;;19.20;9.90;;;9.30;92.20;;;;;;6276477;28;20462;-66
2022/03/31 02:38:00;;;;;;;17.20;9.60;;;9.20;92.30;;;;;;6276511;28;20470;-66
2022/03/31 02:41:06;;;;;;;13.57;10.87;;;9.20;92.40;;;;;;6276107;28;20475;-66
2022/03/31 02:44:09;;;;;;;11.73;9.37;;;9.20;92.70;;;;;;6275264;28;20982;-66
2022/03/31 02:47:12;;;;;;;15.50;9.90;;;9.20;92.70;;;;;;6275936;28;20470;-66
2022/03/31 02:50:17;;;;;;;10.00;9.00;;;9.20;92.70;;;;;;6276023;28;20469;-66
2022/03/31 02:56:42;;;;;;;11.33;9.73;;;9.10;92.60;;;;;;6271208;28;20471;-66
2022/03/31 02:59:45;;;;;;;10.77;9.37;;;9.10;92.80;;;;;;6276182;28;21040;-66
2022/03/31 03:02:48;;;;;;;15.33;10.13;;;9.10;92.60;;;;;;6276592;28;20478;-66
2022/03/31 03:05:52;;;;;;;13.47;10.90;;;9.10;92.60;;;;;;6276084;28;20466;-66
2022/03/31 03:08:55;;;;;;;14.27;10.30;;;9.00;92.70;;;;;;6275656;28;20474;-66
2022/03/31 03:12:00;;;;;;;12.13;10.00;;;9.10;92.80;;;;;;6278088;28;20471;-66
2022/03/31 03:15:03;;;;;;;14.63;10.33;;;9.10;92.80;;;;;;6276020;28;20489;-66
2022/03/31 03:18:08;;;;;;;16.83;11.50;;;9.10;92.80;;;;;;6275448;28;20481;-66
2022/03/31 03:21:11;;;;;;;18.83;10.00;;;9.10;92.80;;;;;;6275451;28;20470;-66
2022/03/31 03:24:15;;;;;;;14.47;11.17;;;9.20;93.20;;;;;;6275050;28;20973;-66
2022/03/31 03:27:19;;;;;;;14.30;10.63;;;9.20;93.20;;;;;;6275347;28;20482;-66
2022/03/31 03:30:23;;;;;;;11.43;10.33;;;9.20;92.90;;;;;;6274961;28;20478;-66
2022/03/31 03:33:26;;;;;;;10.97;9.80;;;9.30;92.80;;;;;;6275001;28;20953;-66
2022/03/31 03:36:29;;;;;;;13.77;10.60;;;9.20;92.70;;;;;;6275122;28;20478;-66
2022/03/31 03:39:33;;;;;;;12.40;10.20;;;9.30;92.80;;;;;;6274919;28;20797;-66
2022/03/31 03:42:38;;;;;;;15.47;10.47;;;9.30;92.90;;;;;;6274630;28;20511;-66
2022/03/31 03:45:42;;;;;;;13.47;11.53;;;9.30;92.90;;;;;;6274980;28;20470;-66
2022/03/31 03:48:45;;;;;;;16.13;10.67;;;9.40;93.00;;;;;;6274835;28;20478;-66
2022/03/31 03:51:48;;;;;;;13.73;10.60;;;9.40;93.00;;;;;;6274712;28;20804;-66
2022/03/31 03:54:52;;;;;;;14.77;10.70;;;9.40;93.00;;;;;;6274534;28;20489;-66
2022/03/31 03:57:56;;;;;;;14.40;10.67;;;9.40;93.00;;;;;;6276000;28;20497;-66
2022/03/31 04:00:59;;;;;;;19.07;10.83;;;9.40;93.00;;;;;;6274951;28;20478;-66
2022/03/31 04:04:02;;;;;;;22.30;13.57;;;9.40;93.00;;;;;;6269657;28;20966;-66
2022/03/31 04:07:06;;;;;;;17.10;10.93;;;9.40;93.10;;;;;;6274635;28;20479;-66
2022/03/31 04:10:10;;;;;;;12.57;10.33;;;9.40;93.00;;;;;;6276041;28;20470;-67
2022/03/31 04:13:14;;;;;;;11.50;10.07;;;9.40;93.20;;;;;;6275625;28;20581;-65
2022/03/31 04:16:17;;;;;;;13.37;10.90;;;9.50;93.20;;;;;;6274332;28;20478;-63
2022/03/31 04:19:21;;;;;;;11.67;10.47;;;9.50;93.20;;;;;;6276703;28;21099;-63
2022/03/31 04:22:24;;;;;;;14.30;10.57;;;9.50;93.00;;;;;;6276944;28;20489;-66
2022/03/31 04:25:27;;;;;;;16.40;11.70;;;9.50;93.10;;;;;;6276254;28;20970;-67
2022/03/31 04:28:32;;;;;;;14.17;12.03;;;9.50;93.10;;;;;;6274783;28;20478;-67
2022/03/31 04:31:36;;;;;;;15.20;10.33;;;9.50;93.20;;;;;;6299606;28;20508;-64
2022/03/31 04:34:40;;;;;;;14.43;10.53;;;9.50;93.80;;;;;;6299429;28;20790;-64
2022/03/31 04:37:43;;;;;;;14.43;11.57;;;9.60;93.70;;;;;;6299625;28;20511;-65
2022/03/31 04:40:46;;;;;;;14.03;12.17;;;9.60;93.70;;;;;;6301642;28;20492;-64
2022/03/31 04:43:51;;;;;;;18.97;10.67;;;9.60;93.80;;;;;;6299276;28;20468;-64
2022/03/31 04:46:54;;;;;;;16.10;11.60;;;9.60;93.80;;;;;;6299408;28;20476;-65
2022/03/31 04:49:57;;;;;;;15.77;10.80;;;9.60;93.70;;;;;;6298865;28;20461;-64
2022/03/31 04:53:00;;;;;;;16.43;11.90;;;9.60;93.60;;;;;;6301707;28;20478;-67
2022/03/31 04:56:04;;;;;;;16.83;12.70;;;9.60;93.70;;;;;;6300278;28;20473;-64
2022/03/31 04:59:08;;;;;;;14.73;11.53;;;9.50;93.90;;;;;;6299070;28;20481;-67
2022/03/31 05:02:12;;;;;;;12.57;11.23;;;9.50;94.30;;;;;;6299276;28;20470;-66
2022/03/31 05:05:15;;;;;;;16.63;11.57;;;9.50;94.70;;;;;;6295020;28;20919;-67
2022/03/31 05:08:19;;;;;;;13.23;12.03;;;9.50;94.90;;;;;;6303514;28;20473;-67
2022/03/31 05:11:22;;;;;;;13.80;12.37;;;9.50;95.10;;;;;;6302955;28;20474;-67
2022/03/31 05:14:26;;;;;;;15.40;11.83;;;9.60;95.20;;;;;;6303024;28;20484;-67
2022/03/31 05:17:33;;;;;;;16.77;11.70;;;9.70;95.30;;;;;;6302994;28;20488;-67
2022/03/31 05:20:37;;;;;;;18.30;12.30;;;9.70;95.40;;;;;;6303447;28;20470;-67
2022/03/31 05:23:40;;;;;;;15.77;11.63;;;9.70;95.60;;;;;;6303155;28;20945;-67
2022/03/31 05:26:43;;;;;;;19.10;15.43;;;9.80;95.70;;;;;;6302831;28;20470;-65
2022/03/31 05:29:48;;;;;;;15.73;13.27;;;9.80;95.70;;;;;;6302697;28;20469;-65
2022/03/31 05:32:52;;;;;;;16.63;13.47;;;9.90;95.90;;;;;;6302675;28;20481;-62
2022/03/31 05:35:58;;;;;;;19.20;12.47;;;9.90;96.00;;;;;;6302454;28;20488;-65
2022/03/31 05:39:02;;;;;;;16.53;14.03;;;10.00;95.50;;;;;;6317681;28;20477;-64
2022/03/31 05:42:07;;;;;;;18.23;13.20;;;9.90;96.10;;;;;;6303488;28;20477;-64
2022/03/31 05:45:13;;;;;;;18.63;13.17;;;10.00;95.60;;;;;;6303103;28;20480;-63
2022/03/31 05:48:17;;;;;;;15.23;12.57;;;10.00;95.90;;;;;;6302391;28;20477;-63
2022/03/31 05:51:20;;;;;;;15.40;12.70;;;10.00;96.10;;;;;;6302114;28;20992;-63
2022/03/31 05:54:23;;;;;;;17.60;12.20;;;10.00;96.20;;;;;;6303999;28;20465;-67
2022/03/31 05:57:26;;;;;;;15.83;12.93;;;10.10;96.30;;;;;;6305245;28;20797;-67
2022/03/31 06:00:31;;;;;;;20.87;13.57;;;10.20;96.40;;;;;;6302552;28;20476;-64
2022/03/31 06:03:34;;;;;;;19.00;12.40;;;10.20;96.60;;;;;;6302545;28;20473;-63
2022/03/31 06:06:37;;;;;;;20.47;12.83;;;10.20;96.80;;;;;;6302289;28;20472;-63
2022/03/31 06:09:40;;;;;;;19.27;14.33;;;10.20;96.70;;;;;;6297605;28;20481;-64
2022/03/31 06:12:44;;;;;;;23.40;13.50;;;10.30;97.10;;;;;;6301611;28;20549;-65
2022/03/31 06:15:48;;;;;;;17.13;13.47;;;10.30;97.20;;;;;;6301386;28;20481;-65
2022/03/31 06:18:51;;;;;;;16.30;13.63;;;10.30;97.30;;;;;;6301635;28;20495;-65
2022/03/31 06:21:55;;;;;;;19.80;13.57;;;10.30;97.50;;;;;;6301384;28;20484;-65
2022/03/31 06:24:58;;;;;;;24.37;14.20;;;10.30;97.50;;;;;;6301456;28;20477;-65
2022/03/31 06:28:01;;;;;;;20.63;14.50;;;10.40;97.80;;;;;;6301172;28;20468;-65
2022/03/31 06:31:06;;;;;;;20.43;14.20;;;10.40;98.00;;;;;;6302048;28;20484;-65
2022/03/31 06:34:09;;;;;;;23.37;14.60;;;10.40;98.10;;;;;;6301776;28;20478;-65
2022/03/31 06:37:13;;;;;;;19.50;15.03;;;10.50;98.30;;;;;;6301147;28;20477;-65
2022/03/31 06:40:19;;;;;;;19.27;13.83;;;10.50;98.40;;;;;;6300729;28;20799;-65
2022/03/31 06:43:22;;;;;;;18.97;15.27;;;10.40;98.40;;;;;;6300982;28;20816;-65
2022/03/31 06:46:26;;;;;;;23.70;14.37;;;10.40;98.70;;;;;;6301048;28;20473;-64
2022/03/31 06:49:30;;;;;;;22.87;16.53;;;10.40;99.00;;;;;;6300871;28;20507;-64
2022/03/31 06:52:33;;;;;;;15.97;13.93;;;10.40;99.50;;;;;;6300493;28;20469;-65
2022/03/31 06:55:36;;;;;;;18.03;13.93;;;10.40;99.30;;;;;;6300492;28;20583;-65
2022/03/31 06:58:39;;;;;;;21.40;15.07;;;10.50;99.60;;;;;;6300609;28;20474;-65
2022/03/31 07:01:44;;;;;;;17.27;15.20;;;10.50;99.50;;;;;;6300115;28;20465;-65
2022/03/31 07:04:47;;;;;;;16.97;14.30;;;10.50;99.60;;;;;;6300969;28;20444;-65
2022/03/31 07:07:50;;;;;;;18.87;14.30;;;10.50;99.70;;;;;;6300287;28;20445;-64
2022/03/31 07:10:54;;;;;;;17.83;14.10;;;10.50;99.80;;;;;;6296520;28;20453;-65
2022/03/31 07:14:00;;;;;;;18.00;15.27;;;10.50;99.90;;;;;;6300617;28;20489;-64
2022/03/31 07:17:05;;;;;;;21.47;16.40;;;10.40;99.90;;;;;;6300315;28;20937;-64
2022/03/31 07:20:10;;;;;;;22.37;15.77;;;10.40;99.90;;;;;;6300234;28;20788;-65
2022/03/31 07:23:14;;;;;;;20.53;16.07;;;10.30;99.90;;;;;;6300383;28;20479;-64
2022/03/31 07:26:17;;;;;;;19.73;16.10;;;10.30;99.90;;;;;;6300360;28;20964;-64
2022/03/31 07:29:20;;;;;;;17.40;14.90;;;10.30;99.90;;;;;;6300652;28;20469;-64
2022/03/31 07:32:25;;;;;;;20.10;16.90;;;10.30;99.90;;;;;;6300242;28;20485;-64
2022/03/31 07:35:30;;;;;;;15.37;13.63;;;10.40;99.90;;;;;;6299877;28;20953;-64
2022/03/31 07:38:33;;;;;;;22.33;15.00;;;10.40;99.90;;;;;;6299287;28;20848;-64
2022/03/31 07:41:36;;;;;;;18.10;15.00;;;10.40;99.90;;;;;;6299568;28;20980;-64
2022/03/31 07:44:39;;;;;;;20.57;16.30;;;10.40;99.90;;;;;;6300187;28;20474;-64
2022/03/31 07:47:44;;;;;;;15.47;13.80;;;10.40;99.90;;;;;;6299862;28;20477;-64
2022/03/31 07:50:47;;;;;;;21.03;16.27;;;10.50;99.90;;;;;;6300140;28;20477;-65
2022/03/31 07:53:50;;;;;;;18.53;14.30;;;10.30;99.90;;;;;;6299572;28;20555;-64
2022/03/31 07:56:53;;;;;;;20.90;16.47;;;10.30;99.90;;;;;;6299764;28;20481;-65
2022/03/31 07:59:56;;;;;;;19.47;15.53;;;10.40;99.90;;;;;;6299402;28;20966;-64
2022/03/31 08:03:01;;;;;;;24.60;17.53;;;10.40;99.90;;;;;;6299681;28;20480;-64
2022/03/31 08:06:04;;;;;;;20.80;17.57;;;10.50;99.90;;;;;;6299641;28;20469;-64
2022/03/31 08:09:08;;;;;;;22.33;16.40;;;10.50;99.90;;;;;;6299438;28;20477;-65
2022/03/31 08:12:11;;;;;;;20.73;17.40;;;10.50;99.90;;;;;;6299962;28;20484;-70
2022/03/31 08:15:16;;;;;;;19.93;17.20;;;10.50;99.90;;;;;;6299535;28;20469;-64
2022/03/31 08:18:28;;;;;;;19.57;17.73;;;10.50;99.90;;;;;;6294348;28;20473;-65
2022/03/31 08:21:32;;;;;;;19.37;16.83;;;10.50;99.90;;;;;;6299039;28;20809;-64
2022/03/31 08:24:35;;;;;;;23.80;19.80;;;10.50;99.90;;;;;;6296091;28;20485;-65
2022/03/31 08:27:39;;;;;;;19.27;17.27;;;10.60;99.90;;;;;;6298969;28;20472;-64
2022/03/31 08:30:42;;;;;;;26.23;18.13;;;10.70;99.90;;;;;;6300343;28;20469;-64
2022/03/31 08:33:46;;;;;;;21.47;17.83;;;10.70;99.90;;;;;;6303744;28;20480;-64
2022/03/31 08:36:49;;;;;;;24.37;18.80;;;10.80;99.90;;;;;;6304425;28;20470;-65
2022/03/31 08:39:53;;;;;;;20.33;18.00;;;10.90;99.90;;;;;;6299244;28;20488;-64
2022/03/31 08:42:56;;;;;;;20.83;18.73;;;10.90;99.90;;;;;;6301806;28;20484;-64
2022/03/31 08:45:59;;;;;;;20.43;18.43;;;11.00;99.90;;;;;;6306469;28;20470;-65
2022/03/31 08:49:04;;;;;;;20.70;18.40;;;11.00;99.90;;;;;;6272954;28;20467;-66
2022/03/31 08:52:09;;;;;;;22.37;16.20;;;11.10;99.90;;;;;;6265563;28;20485;-64
2022/03/31 08:55:13;;;;;;;19.90;17.90;;;11.20;99.90;;;;;;6278805;28;20477;-64
2022/03/31 08:58:16;;;;;;;19.57;17.57;;;11.20;99.90;;;;;;6257138;28;20475;-65
2022/03/31 09:01:19;;;;;;;19.17;17.27;;;11.30;99.90;;;;;;6260391;28;20478;-65
2022/03/31 09:04:25;;;;;;;19.70;17.60;;;11.20;99.90;;;;;;6253140;28;20475;-64
2022/03/31 09:07:29;;;;;;;23.83;18.10;;;11.20;99.90;;;;;;6253558;28;20470;-64
2022/03/31 09:10:33;;;;;;;20.30;18.23;;;11.30;99.90;;;;;;6253065;28;20471;-63
2022/03/31 09:13:40;;;;;;;21.20;16.90;;;11.30;99.90;;;;;;6277771;28;20482;-64
2022/03/31 09:16:44;;;;;;;22.67;17.40;;;11.40;99.90;;;;;;6255344;28;20525;-64
2022/03/31 09:19:57;;;;;;;20.53;17.73;;;11.50;99.90;;;;;;6269824;28;20474;-64
2022/03/31 09:23:00;;;;;;;20.60;17.73;;;11.70;99.90;;;;;;6278118;28;20466;-66
2022/03/31 09:26:07;;;;;;;20.70;18.50;;;11.70;99.90;;;;;;6278016;28;20478;-65
2022/03/31 09:29:15;;;;;;;21.03;18.33;;;11.60;99.90;;;;;;6277944;28;20474;-65
2022/03/31 09:32:18;;;;;;;20.67;18.20;;;11.50;99.90;;;;;;6277537;28;20478;-65
2022/03/31 09:35:24;;;;;;;20.37;18.17;;;11.60;99.90;;;;;;6277392;28;20482;-65
2022/03/31 09:38:27;;;;;;;20.83;18.20;;;11.70;99.90;;;;;;6278801;28;20788;-63
2022/03/31 09:41:33;;;;;;;24.50;18.80;;;11.80;99.90;;;;;;6277134;28;20474;-64
2022/03/31 09:44:36;;;;;;;20.47;18.27;;;11.80;99.90;;;;;;6276628;28;20489;-64
2022/03/31 09:47:47;;;;;;;19.73;17.87;;;11.90;99.90;;;;;;6264517;28;20489;-64
2022/03/31 09:50:53;;;;;;;21.27;18.90;;;11.90;99.90;;;;;;6252263;28;20819;-65
2022/03/31 09:53:56;;;;;;;24.00;19.30;;;11.80;99.90;;;;;;6277579;28;20470;-65
2022/03/31 09:57:01;;;;;;;26.57;19.17;;;11.70;99.90;;;;;;6276727;28;20485;-65
2022/03/31 10:00:06;;;;;;;23.43;20.87;;;11.60;99.90;;;;;;6277020;28;20942;-65
2022/03/31 10:03:13;;;;;;;23.00;20.70;;;11.50;99.90;;;;;;6276327;28;20474;-66
2022/03/31 10:06:18;;;;;;;25.93;20.40;;;11.50;99.90;;;;;;6276657;28;20471;-64
2022/03/31 10:09:23;;;;;;;27.73;21.83;;;11.40;99.90;;;;;;6276752;28;20557;-64
2022/03/31 10:12:33;;;;;;;20.47;18.47;;;11.30;99.90;;;;;;6276361;28;20482;-64
2022/03/31 10:15:38;;;;;;;23.10;18.90;;;11.30;99.90;;;;;;6276417;28;20467;-64
2022/03/31 10:18:41;;;;;;;21.13;18.70;;;11.40;99.90;;;;;;6276253;28;20478;-64
2022/03/31 10:21:56;;;;;;;19.87;17.83;;;11.50;99.90;;;;;;6276605;28;20479;-64
2022/03/31 10:24:58;;;;;;;21.63;18.50;;;11.60;99.90;;;;;;6271511;28;20485;-64
2022/03/31 10:28:09;;;;;;;20.63;18.53;;;11.60;99.90;;;;;;6276440;28;20466;-64
2022/03/31 10:31:14;;;;;;;20.20;16.80;;;11.80;99.90;;;;;;6275820;28;20474;-64
2022/03/31 10:34:18;;;;;;;25.63;18.40;;;11.90;99.90;;;;;;6276137;28;20953;-64
2022/03/31 10:37:35;;;;;;;21.20;19.00;;;12.00;99.90;;;;;;6276050;28;20473;-63
2022/03/31 10:40:40;;;;;;;21.03;18.50;;;11.90;99.90;;;;;;6275368;28;20501;-64
2022/03/31 10:43:51;;;;;;;20.20;18.20;;;11.80;99.90;;;;;;6274849;28;20473;-67
2022/03/31 10:47:02;;;;;;;21.00;18.80;;;11.80;99.90;;;;;;6267619;28;20440;-65
2022/03/31 10:50:07;;;;;;;24.60;19.70;;;11.80;99.90;;;;;;6249837;28;20498;-64
2022/03/31 10:53:12;;;;;;;29.47;21.60;;;11.90;99.90;;;;;;6250246;28;20640;-65
2022/03/31 10:56:19;;;;;;;23.00;18.63;;;12.10;99.90;;;;;;6249244;28;20483;-65
2022/03/31 10:59:22;;;;;;;21.40;19.20;;;12.30;99.90;;;;;;6250501;28;20481;-64
2022/03/31 11:02:26;;;;;;;21.17;18.67;;;12.50;99.90;;;;;;6249407;28;20493;-65
2022/03/31 11:05:32;;;;;;;19.97;17.80;;;12.50;99.90;;;;;;6249732;28;20475;-65
2022/03/31 11:08:43;;;;;;;21.80;19.07;;;12.60;99.90;;;;;;6250462;28;20581;-64
2022/03/31 11:11:50;;;;;;;19.27;17.37;;;12.80;99.90;;;;;;6250518;28;20594;-64
2022/03/31 11:14:59;;;;;;;23.70;19.73;;;13.00;99.90;;;;;;6250045;28;20471;-65
2022/03/31 11:18:03;;;;;;;19.40;17.13;;;13.20;99.90;;;;;;6250589;28;20625;-66
2022/03/31 11:21:06;;;;;;;21.00;18.27;;;13.40;99.90;;;;;;6250579;28;20487;-64
2022/03/31 11:24:12;;;;;;;18.00;14.70;;;13.40;99.90;;;;;;6249550;28;20490;-65
2022/03/31 11:27:15;;;;;;;18.67;13.50;;;13.30;99.90;;;;;;6250117;28;20777;-65
2022/03/31 11:30:20;;;;;;;16.10;14.10;;;13.20;99.90;;;;;;6236753;28;20823;-64
2022/03/31 11:33:33;;;;;;;15.70;13.33;;;13.20;99.90;;;;;;6249711;28;20475;-64
2022/03/31 11:36:39;;;;;;;15.77;13.23;;;13.20;99.90;;;;;;6250077;28;20613;-64
2022/03/31 11:39:49;;;;;;;15.07;13.13;;;13.00;99.80;;;;;;6250132;28;20962;-65
2022/03/31 11:42:59;;;;;;;15.80;12.85;;;12.90;99.90;;;;;;6252268;28;20437;-64
2022/03/31 11:46:03;;;;;;;14.97;11.93;;;12.70;99.90;;;;;;6280681;28;20243;-65
2022/03/31 11:49:14;;;;;;;15.93;12.50;;;12.50;99.90;;;;;;6251690;28;20558;-66
2022/03/31 11:52:17;;;;;;;19.70;15.00;;;12.40;99.90;;;;;;6250654;28;20483;-67
2022/03/31 11:55:22;;;;;;;17.53;15.53;;;12.30;99.90;;;;;;6250609;28;20895;-66
2022/03/31 11:58:25;;;;;;;16.93;15.13;;;12.20;99.90;;;;;;6250548;28;20554;-65
2022/03/31 12:01:34;;;;;;;15.90;14.00;;;12.10;99.90;;;;;;6250450;28;20482;-65
2022/03/31 12:04:39;;;;;;;18.03;13.70;;;11.90;99.90;;;;;;6253197;23;20495;-67
2022/03/31 12:07:43;;;;;;;17.30;13.80;;;11.80;99.90;;;;;;6254483;28;20458;-67
2022/03/31 12:10:50;;;;;;;17.13;14.43;;;11.80;99.90;;;;;;6257545;28;20450;-66
2022/03/31 12:13:57;;;;;;;16.93;14.17;;;11.80;99.90;;;;;;6254251;28;20463;-66
2022/03/31 12:17:00;;;;;;;14.67;13.13;;;11.80;99.90;;;;;;6259843;28;20466;-66
2022/03/31 12:20:13;;;;;;;19.47;16.07;;;11.90;99.90;;;;;;6260107;28;20471;-66
2022/03/31 12:23:18;;;;;;;16.83;13.70;;;11.90;99.90;;;;;;6233739;28;20920;-66
2022/03/31 12:26:23;;;;;;;18.73;14.53;;;12.00;99.90;;;;;;6231771;28;20483;-67
2022/03/31 12:29:28;;;;;;;18.17;14.13;;;12.00;99.90;;;;;;6235615;28;20472;-66
2022/03/31 12:32:33;;;;;;;16.00;13.47;;;12.00;99.90;;;;;;6223733;28;20495;-66
2022/03/31 12:35:36;;;;;;;16.13;13.37;;;11.90;99.90;;;;;;6232028;28;20979;-66
2022/03/31 12:38:44;;;;;;;15.20;13.60;;;11.80;99.90;;;;;;6247928;28;20542;-66
2022/03/31 12:41:53;;;;;;;14.97;13.47;;;11.80;99.90;;;;;;6261880;28;20471;-65
2022/03/31 12:44:56;;;;;;;18.53;14.73;;;11.70;99.90;;;;;;6242413;28;21014;-65
2022/03/31 12:48:08;;;;;;;18.80;15.63;;;11.70;99.90;;;;;;6234411;28;20983;-66
2022/03/31 12:51:11;;;;;;;20.03;14.80;;;11.70;99.90;;;;;;6231747;28;20514;-65
2022/03/31 12:54:28;;;;;;;17.63;15.60;;;11.80;99.90;;;;;;6232964;28;20972;-66
2022/03/31 12:57:33;;;;;;;20.53;15.90;;;12.00;99.90;;;;;;6234451;28;20468;-67
2022/03/31 13:00:37;;;;;;;20.30;16.80;;;12.10;99.90;;;;;;6233199;28;20811;-67
2022/03/31 13:03:42;;;;;;;18.37;16.37;;;12.20;99.90;;;;;;6232293;28;20533;-66
2022/03/31 13:06:46;;;;;;;18.63;15.80;;;12.30;99.90;;;;;;6232699;28;20464;-66
2022/03/31 13:09:49;;;;;;;17.53;15.37;;;12.40;99.90;;;;;;6233303;28;20468;-67
2022/03/31 13:12:55;;;;;;;18.57;13.97;;;12.50;99.90;;;;;;6245678;28;20481;-67
2022/03/31 13:15:58;;;;;;;18.27;14.47;;;12.70;99.90;;;;;;6254693;28;20471;-67
2022/03/31 13:19:01;;;;;;;17.60;14.97;;;12.90;99.90;;;;;;6256156;28;20562;-68
2022/03/31 13:22:06;;;;;;;18.90;14.93;;;13.00;99.90;;;;;;6254137;28;20488;-67
2022/03/31 13:25:10;;;;;;;16.57;14.73;;;13.10;99.90;;;;;;6253520;28;20815;-67
2022/03/31 13:28:15;;;;;;;17.93;15.90;;;13.10;99.90;;;;;;6259241;28;20475;-67
2022/03/31 13:31:18;;;;;;;17.57;14.80;;;12.90;99.90;;;;;;6260174;28;20483;-67
2022/03/31 13:34:24;;;;;;;19.23;14.43;;;12.90;99.90;;;;;;6255823;28;20483;-67
2022/03/31 13:37:27;;;;;;;17.60;14.63;;;12.70;99.90;;;;;;6249275;28;20819;-68
2022/03/31 13:40:31;;;;;;;15.83;14.27;;;12.50;99.90;;;;;;6255089;28;20486;-68
2022/03/31 13:43:36;;;;;;;17.53;15.70;;;12.40;99.90;;;;;;6253171;28;20476;-67
2022/03/31 13:46:41;;;;;;;17.13;14.50;;;12.30;99.90;;;;;;6233971;28;20453;-68
2022/03/31 13:49:45;;;;;;;16.20;14.60;;;12.20;99.90;;;;;;6233449;28;20814;-67
2022/03/31 13:53:43;;;;;;;16.47;14.03;;;12.10;99.90;;;;;;6232098;28;20479;-68
2022/03/31 13:56:12;;;;;;;13.43;11.93;;;12.20;99.90;;;;;;6241274;28;20483;-66
2022/03/31 14:02:37;;;;;;;12.30;11.10;;;12.30;99.90;;;;;;6238430;28;20487;-67
2022/03/31 14:05:41;;;;;;;13.17;11.27;;;12.50;99.90;;;;;;6239557;28;20476;-67
2022/03/31 14:08:44;;;;;;;12.60;11.30;;;12.80;99.90;;;;;;6237243;28;20472;-66
2022/03/31 14:11:48;;;;;;;12.93;10.77;;;13.00;99.90;;;;;;6238661;28;20479;-65
2022/03/31 14:14:52;;;;;;;13.73;11.10;;;13.00;99.90;;;;;;6257135;28;20478;-66
2022/03/31 14:17:58;;;;;;;12.43;11.10;;;13.00;99.90;;;;;;6257011;28;20478;-66
2022/03/31 14:21:08;;;;;;;12.20;10.90;;;13.10;99.90;;;;;;6259352;28;20538;-66
2022/03/31 14:24:12;;;;;;;11.53;10.50;;;13.10;99.90;;;;;;6255461;28;20478;-66
2022/03/31 14:27:16;;;;;;;11.30;10.30;;;13.00;99.90;;;;;;6256301;28;20475;-65
2022/03/31 14:30:21;;;;;;;12.30;11.17;;;12.90;99.90;;;;;;6254381;28;20463;-66
2022/03/31 14:33:25;;;;;;;14.63;10.73;;;12.90;99.90;;;;;;6252412;28;20493;-66
2022/03/31 14:36:28;;;;;;;10.73;9.63;;;12.80;99.90;;;;;;6252194;28;20787;-67
2022/03/31 14:39:32;;;;;;;12.93;10.40;;;12.60;99.90;;;;;;6252360;28;20971;-66
2022/03/31 14:42:35;;;;;;;11.60;10.40;;;12.50;99.90;;;;;;6246078;28;20637;-65
2022/03/31 14:45:40;;;;;;;11.13;10.00;;;12.40;99.90;;;;;;6235712;28;20977;-64
2022/03/31 14:48:45;;;;;;;11.20;10.10;;;12.40;99.90;;;;;;6241162;28;20469;-65
2022/03/31 14:51:48;;;;;;;10.83;9.80;;;12.30;99.90;;;;;;6232284;28;20971;-64
2022/03/31 14:54:52;;;;;;;11.23;10.10;;;12.30;99.90;;;;;;6237576;28;20476;-66
2022/03/31 14:57:55;;;;;;;10.10;9.10;;;12.20;99.90;;;;;;6232953;28;20480;-65
2022/03/31 15:01:00;;;;;;;11.30;10.10;;;12.20;99.90;;;;;;6234243;28;20495;-65
2022/03/31 15:04:03;;;;;;;11.70;10.17;;;12.20;99.90;;;;;;6234498;28;21013;-65
2022/03/31 15:07:07;;;;;;;13.53;12.23;;;12.30;99.90;;;;;;6242219;28;20475;-65
2022/03/31 15:16:53;;;;;;;10.47;8.07;;;12.40;99.90;;;;;;6256357;28;20448;-66
2022/03/31 15:19:57;;;;;;;10.90;8.90;;;12.40;99.90;;;;;;6254817;28;20526;-67
2022/03/31 15:23:00;;;;;;;9.80;8.63;;;12.30;99.90;;;;;;6253023;28;20467;-67
2022/03/31 15:26:03;;;;;;;9.37;8.47;;;12.30;99.90;;;;;;6253934;28;20802;-68
2022/03/31 15:29:08;;;;;;;9.57;8.73;;;12.30;99.90;;;;;;6253458;28;20475;-66
2022/03/31 15:32:13;;;;;;;9.97;8.97;;;12.40;99.90;;;;;;6252651;28;20776;-65
2022/03/31 15:35:17;;;;;;;8.90;8.00;;;12.30;99.90;;;;;;6256163;28;20463;-65
2022/03/31 15:38:21;;;;;;;8.83;8.03;;;12.20;99.90;;;;;;6255025;28;20471;-65
2022/03/31 15:41:24;;;;;;;9.23;8.30;;;12.20;99.90;;;;;;6253485;28;20483;-65
2022/03/31 15:44:29;;;;;;;9.30;8.10;;;12.20;99.90;;;;;;6236362;28;20574;-65
2022/03/31 15:47:34;;;;;;;7.87;6.70;;;12.10;99.90;;;;;;6227084;28;20815;-66
2022/03/31 15:50:43;;;;;;;7.67;7.00;;;12.00;99.90;;;;;;6228653;28;20472;-67
2022/03/31 15:53:46;;;;;;;7.73;7.00;;;12.00;99.90;;;;;;6231096;28;20483;-66
2022/03/31 15:56:49;;;;;;;7.97;7.23;;;12.00;99.90;;;;;;6232857;28;20487;-66